createdAt,value
2018-08-13T13:40:33.704Z,27.00
2018-08-13T13:42:36.017Z,26.80
2018-08-13T13:44:38.104Z,26.80
2018-08-13T13:46:40.197Z,27.30
2018-08-13T13:48:42.233Z,27.00
2018-08-13T13:50:44.531Z,27.40
2018-08-13T13:52:46.921Z,27.20
2018-08-13T13:54:49.024Z,26.00
2018-08-13T13:56:51.288Z,25.60
2018-08-13T13:58:53.423Z,25.20
2018-08-13T14:00:55.622Z,25.00
2018-08-13T14:02:57.663Z,24.80
2018-08-13T14:04:59.744Z,24.60
2018-08-13T14:07:02.312Z,25.10
2018-08-13T14:09:07.312Z,25.60
2018-08-13T14:11:09.373Z,26.00
2018-08-13T14:13:11.440Z,25.90
2018-08-13T14:15:15.100Z,26.00
2018-08-13T14:17:17.211Z,25.60
2018-08-13T14:19:19.241Z,24.90
2018-08-13T14:21:21.257Z,24.90
2018-08-13T14:23:23.305Z,24.90
2018-08-13T14:25:25.333Z,24.50
2018-08-13T14:27:27.496Z,24.40
2018-08-13T14:29:29.716Z,24.30
2018-08-13T14:31:31.775Z,24.20
2018-08-13T14:33:33.845Z,24.10
2018-08-13T14:35:36.196Z,23.80
2018-08-13T14:37:38.553Z,23.90
2018-08-13T14:39:40.564Z,23.80
2018-08-13T14:41:42.574Z,23.80
2018-08-13T14:43:44.589Z,23.70
2018-08-13T14:45:46.619Z,23.70
2018-08-13T14:47:50.664Z,23.60
2018-08-13T14:49:52.683Z,23.50
2018-08-13T14:51:54.689Z,23.60
2018-08-13T14:53:56.717Z,23.40
2018-08-13T14:55:58.716Z,23.40
2018-08-13T14:58:00.812Z,23.30
2018-08-13T15:00:06.851Z,23.50
2018-08-13T15:02:08.929Z,23.50
2018-08-13T15:04:10.959Z,23.60
2018-08-13T15:06:13.341Z,23.50
2018-08-13T15:08:15.601Z,23.60
2018-08-13T15:10:19.986Z,23.60
2018-08-13T15:12:22.171Z,23.40
2018-08-13T15:14:24.179Z,23.30
2018-08-13T15:16:26.544Z,23.30
2018-08-13T15:18:28.692Z,23.30
2018-08-13T15:20:31.365Z,23.40
2018-08-13T15:22:33.440Z,23.20
2018-08-13T15:24:35.792Z,23.20
2018-08-13T15:26:37.817Z,23.40
2018-08-13T15:28:39.844Z,23.40
2018-08-13T15:30:41.881Z,23.60
2018-08-13T15:32:45.075Z,23.70
2018-08-13T15:34:47.139Z,23.70
2018-08-13T15:36:49.152Z,23.70
2018-08-13T15:38:51.173Z,23.50
2018-08-13T15:40:53.196Z,23.70
2018-08-13T15:42:55.219Z,23.80
2018-08-13T15:44:57.550Z,23.80
2018-08-13T15:46:59.574Z,23.80
2018-08-13T15:49:01.611Z,23.80
2018-08-13T15:51:03.657Z,23.80
2018-08-13T15:53:05.705Z,23.60
2018-08-13T15:55:07.771Z,23.30
2018-08-13T15:57:09.772Z,23.30
2018-08-13T15:59:11.859Z,23.20
2018-08-13T16:01:13.872Z,23.10
2018-08-13T16:03:15.893Z,23.10
2018-08-13T16:05:18.112Z,23.00
2018-08-13T16:07:20.133Z,22.90
2018-08-13T16:09:22.159Z,22.90
2018-08-13T16:11:24.168Z,23.00
2018-08-13T16:13:26.184Z,22.90
2018-08-13T16:15:28.208Z,22.90
2018-08-13T16:17:30.284Z,22.90
2018-08-13T16:19:32.349Z,22.90
2018-08-13T16:21:34.383Z,22.90
2018-08-13T16:23:36.426Z,22.90
2018-08-13T16:25:38.446Z,23.00
2018-08-13T16:27:40.959Z,23.10
2018-08-13T16:29:42.990Z,23.20
2018-08-13T16:31:45.038Z,23.20
2018-08-13T16:33:47.065Z,23.10
2018-08-13T16:35:49.106Z,23.30
2018-08-13T16:37:51.118Z,23.50
2018-08-13T16:39:53.160Z,23.60
2018-08-13T16:41:55.176Z,23.70
2018-08-13T16:43:57.193Z,23.70
2018-08-13T16:45:59.209Z,23.60
2018-08-13T16:48:01.214Z,23.60
2018-08-13T16:50:06.817Z,23.70
2018-08-13T16:52:08.856Z,23.50
2018-08-13T16:54:10.888Z,23.50
2018-08-13T16:56:12.933Z,23.50
2018-08-13T16:58:14.923Z,23.50
2018-08-13T17:00:23.861Z,23.50
2018-08-13T17:02:25.923Z,23.30
2018-08-13T17:04:27.880Z,23.20
2018-08-13T17:06:29.908Z,23.30
2018-08-13T17:08:31.920Z,23.20
2018-08-13T17:10:33.935Z,23.40
2018-08-13T17:12:35.940Z,23.30
2018-08-13T17:14:38.069Z,23.40
2018-08-13T17:16:41.909Z,23.50
2018-08-13T17:18:43.928Z,23.70
2018-08-13T17:20:45.936Z,23.60
2018-08-13T17:22:47.974Z,23.40
2018-08-13T17:24:50.046Z,23.30
2018-08-13T17:26:52.058Z,23.10
2018-08-13T17:28:54.068Z,23.10
2018-08-13T17:30:56.092Z,23.00
2018-08-13T17:32:59.431Z,22.70
2018-08-13T17:35:01.455Z,22.70
2018-08-13T17:37:03.948Z,22.60
2018-08-13T17:39:10.309Z,22.60
2018-08-13T17:41:12.321Z,22.50
2018-08-13T17:43:14.494Z,22.60
2018-08-13T17:45:16.385Z,22.50
2018-08-13T17:47:18.407Z,22.50
2018-08-13T17:49:20.421Z,22.50
2018-08-13T17:51:22.443Z,22.50
2018-08-13T17:53:24.461Z,22.30
2018-08-13T17:55:26.502Z,22.30
2018-08-13T17:57:28.525Z,22.20
2018-08-13T17:59:30.664Z,22.10
2018-08-13T18:01:32.699Z,22.00
2018-08-13T18:03:34.936Z,21.90
2018-08-13T18:05:36.960Z,21.80
2018-08-13T18:07:38.988Z,21.70
2018-08-13T18:09:41.057Z,21.70
2018-08-13T18:11:43.257Z,21.60
2018-08-13T18:13:45.276Z,21.60
2018-08-13T18:15:47.376Z,21.50
2018-08-13T18:17:49.567Z,21.50
2018-08-13T18:19:51.592Z,21.50
2018-08-13T18:21:53.678Z,21.40
2018-08-13T18:23:55.680Z,21.50
2018-08-13T18:25:57.793Z,21.50
2018-08-13T18:27:59.969Z,21.50
2018-08-13T18:30:02.026Z,21.50
2018-08-13T18:32:04.461Z,21.50
2018-08-13T18:34:06.999Z,21.50
2018-08-13T18:36:09.142Z,21.50
2018-08-13T18:38:11.217Z,21.50
2018-08-13T18:40:16.373Z,21.50
2018-08-13T18:42:18.396Z,21.40
2018-08-13T18:44:20.528Z,21.40
2018-08-13T18:46:22.569Z,21.40
2018-08-13T18:48:24.589Z,21.40
2018-08-13T18:50:26.643Z,21.30
2018-08-13T18:52:28.729Z,21.20
2018-08-13T18:54:30.704Z,21.20
2018-08-13T18:56:32.725Z,21.20
2018-08-13T18:58:34.726Z,21.10
2018-08-13T19:00:36.741Z,21.10
2018-08-13T19:02:39.028Z,21.00
2018-08-13T19:04:41.106Z,20.90
2018-08-13T19:06:43.208Z,20.90
2018-08-13T19:08:45.209Z,20.90
2018-08-13T19:10:47.268Z,20.80
2018-08-13T19:12:49.295Z,20.70
2018-08-13T19:14:51.308Z,20.60
2018-08-13T19:16:53.387Z,20.50
2018-08-13T19:18:55.468Z,20.40
2018-08-13T19:20:57.489Z,20.30
2018-08-13T19:22:59.508Z,20.30
2018-08-13T19:25:01.536Z,20.20
2018-08-13T19:27:03.588Z,20.20
2018-08-13T19:29:05.616Z,20.20
2018-08-13T19:31:07.641Z,20.10
2018-08-13T19:33:09.663Z,20.00
2018-08-13T19:35:11.729Z,20.10
2018-08-13T19:37:13.764Z,20.10
2018-08-13T19:39:15.792Z,20.20
2018-08-13T19:41:17.812Z,20.20
2018-08-13T19:43:19.845Z,20.20
2018-08-13T19:45:22.589Z,20.20
2018-08-13T19:47:24.618Z,20.20
2018-08-13T19:49:26.672Z,20.20
2018-08-13T19:51:28.812Z,20.20
2018-08-13T19:53:30.833Z,20.20
2018-08-13T19:55:32.911Z,20.20
2018-08-13T19:57:34.876Z,20.10
2018-08-13T19:59:36.904Z,20.10
2018-08-13T20:01:39.001Z,19.90
2018-08-13T20:03:41.024Z,19.80
2018-08-13T20:05:43.072Z,19.60
2018-08-13T20:07:45.088Z,19.50
2018-08-13T20:09:47.125Z,19.40
2018-08-13T20:11:53.887Z,19.40
2018-08-13T20:13:55.896Z,19.40
2018-08-13T20:15:57.920Z,19.30
2018-08-13T20:17:59.961Z,19.30
2018-08-13T20:20:01.973Z,19.30
2018-08-13T20:24:32.265Z,19.30
2018-08-13T20:26:34.314Z,19.30
2018-08-13T20:28:36.337Z,19.30
2018-08-13T20:30:38.364Z,19.20
2018-08-13T20:32:40.541Z,19.20
2018-08-13T20:34:42.545Z,19.10
2018-08-13T20:36:44.593Z,19.10
2018-08-13T20:38:47.645Z,19.00
2018-08-13T20:40:49.643Z,18.90
2018-08-13T20:42:51.709Z,18.90
2018-08-13T20:44:53.756Z,18.80
2018-08-13T20:46:55.793Z,18.70
2018-08-13T20:48:57.815Z,18.70
2018-08-13T20:50:59.846Z,18.70
2018-08-13T20:53:01.865Z,18.60
2018-08-13T20:55:05.825Z,18.60
2018-08-13T20:57:07.885Z,18.60
2018-08-13T20:59:09.909Z,18.50
2018-08-13T21:01:11.961Z,18.50
2018-08-13T21:03:14.006Z,18.40
2018-08-13T21:05:16.547Z,18.50
2018-08-13T21:07:18.605Z,18.40
2018-08-13T21:09:20.642Z,18.30
2018-08-13T21:11:22.765Z,18.30
2018-08-13T21:13:24.877Z,18.30
2018-08-13T21:15:26.942Z,18.30
2018-08-13T21:17:29.011Z,18.30
2018-08-13T21:19:31.053Z,18.30
2018-08-13T21:21:33.076Z,18.20
2018-08-13T21:23:35.114Z,18.20
2018-08-13T21:25:37.192Z,18.20
2018-08-13T21:27:39.384Z,18.20
2018-08-13T21:29:41.457Z,18.10
2018-08-13T21:31:43.491Z,18.00
2018-08-13T21:33:45.542Z,18.00
2018-08-13T21:35:47.561Z,18.00
2018-08-13T21:37:49.733Z,18.00
2018-08-13T21:39:51.737Z,18.10
2018-08-13T21:41:53.757Z,18.10
2018-08-13T21:43:55.894Z,18.10
2018-08-13T21:45:57.929Z,18.00
2018-08-13T21:47:59.949Z,18.00
2018-08-13T21:50:01.973Z,18.00
2018-08-13T21:52:04.146Z,18.00
2018-08-13T21:54:06.173Z,18.00
2018-08-13T21:56:08.197Z,17.90
2018-08-13T21:58:10.252Z,18.00
2018-08-13T22:00:24.845Z,17.90
2018-08-13T22:02:26.898Z,17.90
2018-08-13T22:04:28.945Z,17.90
2018-08-13T22:06:30.985Z,17.80
2018-08-13T22:08:33.071Z,17.80
2018-08-13T22:10:35.097Z,17.90
2018-08-13T22:12:37.154Z,17.80
2018-08-13T22:14:39.161Z,17.80
2018-08-13T22:16:41.193Z,17.70
2018-08-13T22:18:43.253Z,17.70
2018-08-13T22:20:45.311Z,17.70
2018-08-13T22:22:47.798Z,17.70
2018-08-13T22:25:00.203Z,17.80
2018-08-13T22:27:02.235Z,17.80
2018-08-13T22:29:04.300Z,17.80
2018-08-13T22:31:06.330Z,17.80
2018-08-13T22:33:09.556Z,17.90
2018-08-13T22:35:11.586Z,17.90
2018-08-13T22:37:13.613Z,17.90
2018-08-13T22:39:15.657Z,17.90
2018-08-13T22:41:17.669Z,17.80
2018-08-13T22:43:25.381Z,17.90
2018-08-13T22:45:27.392Z,17.90
2018-08-13T22:47:29.732Z,17.90
2018-08-13T22:49:31.771Z,17.90
2018-08-13T22:51:33.813Z,17.90
2018-08-13T22:53:35.839Z,17.90
2018-08-13T22:55:37.874Z,17.90
2018-08-13T22:57:39.897Z,17.90
2018-08-13T22:59:41.965Z,18.00
2018-08-13T23:01:43.985Z,18.00
2018-08-13T23:03:46.034Z,18.00
2018-08-13T23:05:48.075Z,18.10
2018-08-13T23:07:50.134Z,18.10
2018-08-13T23:09:52.181Z,18.00
2018-08-13T23:11:54.209Z,18.00
2018-08-13T23:13:56.238Z,18.00
2018-08-13T23:15:58.274Z,18.00
2018-08-13T23:18:00.297Z,18.00
2018-08-13T23:20:02.354Z,18.00
2018-08-13T23:22:04.386Z,18.10
2018-08-13T23:24:06.469Z,18.10
2018-08-13T23:26:08.501Z,18.10
2018-08-13T23:28:10.675Z,18.10
2018-08-13T23:30:13.837Z,18.00
2018-08-13T23:32:15.849Z,18.00
2018-08-13T23:34:17.862Z,18.00
2018-08-13T23:36:19.866Z,18.00
2018-08-13T23:38:21.873Z,17.90
2018-08-13T23:40:24.187Z,17.90
2018-08-13T23:42:26.241Z,17.90
2018-08-13T23:44:28.250Z,17.80
2018-08-13T23:46:30.269Z,17.80
2018-08-13T23:48:32.290Z,17.70
2018-08-13T23:50:34.301Z,17.70
2018-08-13T23:52:36.925Z,17.70
2018-08-13T23:54:39.240Z,17.70
2018-08-13T23:56:41.253Z,17.70
2018-08-13T23:58:43.268Z,17.70
